Time;durP1;ratioP1;P1;durP2;ratioP2;P2;SDS_P1;SDS_P2;PMS_P1;PMS_P2;Temp;Humidity;BMP_temperature;BMP_pressure;BME280_temperature;BME280_humidity;BME280_pressure;Samples;Min_cycle;Max_cycle;Signal;HPM_P1;HPM_P2
2022/12/18 00:00:48;;;;;;;;;41.67;35.00;;;;;-1.47;76.48;102781.72;5062990;28;11603;-63
2022/12/18 00:03:15;;;;;;;;;51.67;42.33;;;;;-1.44;77.26;102765.75;5063897;28;12420;-66
2022/12/18 00:05:52;;;;;;;;;53.67;45.00;;;;;-1.41;76.93;102764.75;5064291;28;11660;-65
2022/12/18 00:08:19;;;;;;;;;49.00;44.67;;;;;-1.49;76.17;102765.09;5072758;28;11569;-65
2022/12/18 00:10:45;;;;;;;;;56.00;45.00;;;;;-1.43;76.79;102763.94;5076386;28;11734;-65
2022/12/18 00:13:12;;;;;;;;;60.33;45.33;;;;;-1.45;76.24;102766.69;5066880;28;8835;-68
2022/12/18 00:15:39;;;;;;;;;56.00;45.00;;;;;-1.46;76.32;102764.09;5070462;28;8953;-67
2022/12/18 00:18:06;;;;;;;;;51.67;41.33;;;;;-1.48;76.38;102756.25;5065883;28;11630;-65
2022/12/18 00:20:37;;;;;;;;;54.00;42.67;;;;;-1.58;76.88;102761.09;5061362;28;11587;-65
2022/12/18 00:23:05;;;;;;;;;55.00;45.00;;;;;-1.62;76.38;102766.53;5068049;28;11620;-64
2022/12/18 00:25:36;;;;;;;;;64.33;45.67;;;;;-1.60;76.78;102770.00;5061132;28;11602;-65
2022/12/18 00:28:04;;;;;;;;;46.00;40.00;;;;;-1.58;76.80;102770.75;5061110;28;11573;-65
2022/12/18 00:30:30;;;;;;;;;64.33;50.67;;;;;-1.65;77.17;102772.00;5051431;28;11600;-65
2022/12/18 00:32:57;;;;;;;;;62.67;43.00;;;;;-1.71;77.30;102759.91;5039056;28;9307;-65
2022/12/18 00:35:24;;;;;;;;;45.00;42.67;;;;;-1.70;77.44;102747.56;5053268;28;8869;-65
2022/12/18 00:37:51;;;;;;;;;50.33;44.00;;;;;-1.66;77.37;102757.94;5072634;28;12294;-66
2022/12/18 00:40:18;;;;;;;;;50.67;40.67;;;;;-1.60;77.36;102755.00;5035871;28;12274;-65
2022/12/18 00:42:56;;;;;;;;;52.50;41.25;;;;;-1.61;77.20;102766.50;5052526;28;11627;-64
2022/12/18 00:45:28;;;;;;;;;50.33;45.00;;;;;-1.64;76.60;102763.13;5054686;28;11770;-64
2022/12/18 00:47:55;;;;;;;;;54.67;43.67;;;;;-1.67;76.67;102769.41;5053504;28;11603;-65
2022/12/18 00:50:24;;;;;;;;;49.67;44.33;;;;;-1.63;77.17;102763.06;5066354;28;11703;-66
2022/12/18 00:52:50;;;;;;;;;44.25;40.75;;;;;-1.65;76.37;102762.28;5063282;28;11583;-66
2022/12/18 00:55:18;;;;;;;;;44.33;39.67;;;;;-1.67;77.06;102757.97;5044247;28;11753;-63
2022/12/18 00:57:46;;;;;;;;;48.33;40.00;;;;;-1.67;77.02;102764.13;5063384;28;11568;-65
2022/12/18 01:00:14;;;;;;;;;44.00;39.50;;;;;-1.61;76.80;102763.84;5049499;28;11582;-65
2022/12/18 01:02:42;;;;;;;;;49.33;44.00;;;;;-1.59;76.82;102758.50;5066488;28;11592;-66
2022/12/18 01:05:10;;;;;;;;;53.67;41.33;;;;;-1.65;76.06;102754.34;5071570;28;11607;-65
2022/12/18 01:07:37;;;;;;;;;53.00;41.33;;;;;-1.65;76.48;102762.28;5067503;28;11611;-67
2022/12/18 01:10:05;;;;;;;;;40.00;33.75;;;;;-1.62;76.74;102761.25;5070519;28;11614;-67
2022/12/18 01:12:34;;;;;;;;;40.00;34.50;;;;;-1.59;76.68;102766.41;5072853;28;11562;-66
2022/12/18 01:15:01;;;;;;;;;49.25;37.75;;;;;-1.56;76.57;102768.94;5053664;28;11708;-66
2022/12/18 01:17:27;;;;;;;;;39.50;35.50;;;;;-1.52;76.51;102774.00;5070296;28;11605;-67
2022/12/18 01:19:54;;;;;;;;;44.25;35.00;;;;;-1.49;76.40;102773.03;5069537;28;11696;-65
2022/12/18 01:22:20;;;;;;;;;47.25;37.50;;;;;-1.51;75.86;102767.78;5072557;28;11599;-67
2022/12/18 01:24:46;;;;;;;;;59.00;43.33;;;;;-1.57;76.34;102764.59;5052466;28;12371;-64
2022/12/18 01:27:13;;;;;;;;;40.67;35.33;;;;;-1.60;76.48;102762.94;5077471;28;11584;-66
2022/12/18 01:29:40;;;;;;;;;46.00;33.00;;;;;-1.57;76.35;102777.78;5052268;28;11765;-65
2022/12/18 01:32:07;;;;;;;;;51.00;42.33;;;;;-1.68;76.37;102786.16;5061437;28;12391;-66
2022/12/18 01:34:36;;;;;;;;;42.00;34.50;;;;;-1.70;76.03;102780.13;5052676;28;11622;-67
2022/12/18 01:37:04;;;;;;;;;48.67;39.00;;;;;-1.72;76.69;102776.66;5043135;28;11636;-66
2022/12/18 01:39:34;;;;;;;;;52.67;46.33;;;;;-1.74;76.11;102775.91;5061255;28;11587;-67
2022/12/18 01:42:08;;;;;;;;;46.00;38.00;;;;;-1.73;76.66;102776.75;5067284;28;9113;-66
2022/12/18 01:45:01;;;;;;;;;47.00;42.67;;;;;-1.71;76.50;102783.66;5067627;28;11696;-67
2022/12/18 01:47:45;;;;;;;;;38.00;33.33;;;;;-1.68;76.30;102772.97;5049800;28;11749;-67
2022/12/18 01:50:27;;;;;;;;;42.33;37.67;;;;;-1.67;76.60;102777.31;5069025;28;11666;-67
2022/12/18 01:53:05;;;;;;;;;44.67;39.00;;;;;-1.69;75.92;102791.53;5072988;28;11702;-67
2022/12/18 01:55:39;;;;;;;;;45.33;40.00;;;;;-1.76;76.50;102794.41;5070622;28;11579;-67
2022/12/18 01:58:06;;;;;;;;;40.33;33.67;;;;;-1.77;76.63;102805.06;5057121;28;11574;-66
2022/12/18 02:00:32;;;;;;;;;42.33;34.67;;;;;-1.76;76.14;102794.41;5059728;28;11663;-66
2022/12/18 02:02:59;;;;;;;;;38.75;35.25;;;;;-1.82;76.86;102804.41;5066740;28;11602;-66
2022/12/18 02:05:45;;;;;;;;;46.00;36.67;;;;;-1.81;77.03;102806.97;5043643;28;11618;-68
2022/12/18 02:08:32;;;;;;;;;49.33;37.33;;;;;-1.77;76.43;102812.97;5067407;28;11695;-67
2022/12/18 02:11:40;;;;;;;;;29.00;26.67;;;;;-1.76;76.90;102819.97;5054596;28;11572;-65
2022/12/18 02:14:18;;;;;;;;;45.67;36.33;;;;;-1.84;76.08;102820.28;5040080;28;12316;-66
2022/12/18 02:17:03;;;;;;;;;45.33;38.67;;;;;-1.83;76.56;102826.44;5067233;28;11702;-66
2022/12/18 02:19:51;;;;;;;;;46.00;38.33;;;;;-1.87;76.53;102827.47;5070450;28;11635;-66
2022/12/18 02:22:34;;;;;;;;;41.00;35.33;;;;;-1.95;76.51;102829.59;5072164;28;11573;-65
2022/12/18 02:25:50;;;;;;;;;41.67;34.00;;;;;-1.93;77.02;102819.84;5048572;28;11783;-63
2022/12/18 02:28:21;;;;;;;;;50.33;40.67;;;;;-1.95;76.63;102809.31;4990427;28;12343;-67
2022/12/18 02:30:50;;;;;;;;;41.00;31.33;;;;;-1.96;76.23;102802.34;5049802;28;11648;-67
2022/12/18 02:33:21;;;;;;;;;40.25;33.50;;;;;-1.96;76.37;102797.06;5052925;28;11716;-67
2022/12/18 02:35:48;;;;;;;;;41.33;33.67;;;;;-1.93;77.13;102801.38;5069727;28;11617;-67
2022/12/18 02:38:16;;;;;;;;;48.00;39.00;;;;;-1.90;76.87;102777.47;5043879;28;11703;-67
2022/12/18 02:40:46;;;;;;;;;46.33;37.67;;;;;-1.91;76.95;102773.09;5049903;28;11552;-67
2022/12/18 02:43:16;;;;;;;;;47.67;40.00;;;;;-1.95;76.08;102780.28;5050612;28;11597;-66
2022/12/18 02:45:48;;;;;;;;;49.33;40.33;;;;;-2.07;76.76;102773.75;5069796;28;11615;-66
2022/12/18 02:48:17;;;;;;;;;36.33;33.33;;;;;-2.03;77.13;102771.84;5063120;28;8812;-65
2022/12/18 02:50:57;;;;;;;;;41.67;39.33;;;;;-1.97;77.10;102768.97;5076926;28;12337;-67
2022/12/18 02:53:50;;;;;;;;;38.67;29.67;;;;;-2.04;76.64;102771.00;5055776;28;11688;-66
2022/12/18 02:56:38;;;;;;;;;52.33;36.67;;;;;-2.03;77.04;102763.94;5047981;28;11603;-63
2022/12/18 02:59:23;;;;;;;;;37.00;34.75;;;;;-2.11;76.34;102753.69;5050236;28;11591;-66
2022/12/18 03:02:03;;;;;;;;;47.33;38.00;;;;;-2.17;76.79;102759.25;5047143;28;11583;-66
2022/12/18 03:04:40;;;;;;;;;51.67;38.33;;;;;-2.25;76.56;102754.28;5049918;28;9576;-66
2022/12/18 03:07:13;;;;;;;;;39.33;36.00;;;;;-2.20;77.37;102762.00;5054188;28;11597;-63
2022/12/18 03:09:46;;;;;;;;;36.00;31.00;;;;;-2.18;77.34;102756.69;5071315;28;11646;-66
2022/12/18 03:12:22;;;;;;;;;45.67;40.33;;;;;-2.17;76.84;102755.75;5069168;28;11567;-65
2022/12/18 03:14:55;;;;;;;;;46.00;39.33;;;;;-2.19;76.66;102762.88;5045000;28;11723;-66
2022/12/18 03:17:26;;;;;;;;;42.00;35.67;;;;;-2.19;77.54;102749.69;5067880;28;11568;-67
2022/12/18 03:19:58;;;;;;;;;37.33;34.67;;;;;-2.16;76.63;102750.41;5054721;28;11606;-66
2022/12/18 03:22:29;;;;;;;;;40.00;31.33;;;;;-2.18;76.47;102759.31;5051670;28;11611;-67
2022/12/18 03:24:57;;;;;;;;;49.67;43.67;;;;;-2.26;77.08;102757.00;5058970;28;11763;-67
2022/12/18 03:27:26;;;;;;;;;42.00;36.67;;;;;-2.21;77.10;102748.91;5049011;28;8858;-66
2022/12/18 03:30:14;;;;;;;;;46.33;36.67;;;;;-2.19;77.12;102747.88;5048489;28;11567;-68
2022/12/18 03:32:44;;;;;;;;;49.33;45.00;;;;;-2.15;77.19;102749.47;5051605;28;11726;-66
2022/12/18 03:35:14;;;;;;;;;41.00;34.67;;;;;-2.19;76.35;102739.97;5052811;28;8910;-66
2022/12/18 03:37:41;;;;;;;;;44.33;37.00;;;;;-2.14;76.60;102743.31;5048942;28;11617;-67
2022/12/18 03:40:08;;;;;;;;;40.33;36.00;;;;;-2.15;76.78;102733.66;5048508;28;12389;-66
2022/12/18 03:42:49;;;;;;;;;45.00;34.00;;;;;-2.17;76.14;102730.22;5041663;28;11648;-66
2022/12/18 03:45:32;;;;;;;;;39.67;34.67;;;;;-2.20;76.69;102737.41;5050219;28;11677;-67
2022/12/18 03:48:13;;;;;;;;;52.00;42.67;;;;;-2.22;76.44;102726.94;5049752;28;8868;-67
2022/12/18 03:51:29;;;;;;;;;45.67;28.00;;;;;-2.15;76.13;102733.66;5052282;28;11587;-67
2022/12/18 03:54:04;;;;;;;;;48.33;37.67;;;;;-2.11;75.96;102729.94;5037055;28;11712;-67
2022/12/18 03:56:41;;;;;;;;;52.33;42.00;;;;;-2.10;76.16;102723.78;5075755;28;11699;-63
2022/12/18 03:59:12;;;;;;;;;41.00;37.33;;;;;-2.12;76.27;102727.38;5047618;28;8827;-66
2022/12/18 04:01:45;;;;;;;;;36.67;31.00;;;;;-2.11;76.50;102724.69;5049642;28;11586;-67
2022/12/18 04:04:16;;;;;;;;;57.00;45.00;;;;;-2.15;75.71;102712.53;5077456;28;11582;-66
2022/12/18 04:06:46;;;;;;;;;47.67;35.33;;;;;-2.13;75.48;102705.44;5052911;28;8994;-67
2022/12/18 04:09:14;;;;;;;;;51.33;43.33;;;;;-2.15;75.69;102704.63;5028126;28;11597;-67
2022/12/18 04:11:46;;;;;;;;;48.33;39.67;;;;;-2.16;76.09;102696.78;5046655;28;8819;-67
2022/12/18 04:14:14;;;;;;;;;43.67;37.00;;;;;-2.16;76.03;102699.44;5040306;28;11669;-66
2022/12/18 04:16:44;;;;;;;;;42.33;39.67;;;;;-2.19;75.59;102697.75;5047990;28;11723;-65
2022/12/18 04:19:14;;;;;;;;;42.00;33.00;;;;;-2.14;76.16;102700.22;5046946;28;12320;-66
2022/12/18 04:21:43;;;;;;;;;41.33;38.33;;;;;-2.13;75.62;102697.50;5050175;28;11644;-66
2022/12/18 04:24:11;;;;;;;;;50.67;43.00;;;;;-2.13;75.70;102696.66;5041874;28;8826;-67
2022/12/18 04:26:43;;;;;;;;;52.00;43.00;;;;;-2.14;75.74;102695.81;5041526;28;8835;-67
2022/12/18 04:29:14;;;;;;;;;39.67;32.33;;;;;-2.16;75.52;102700.28;5047237;28;8836;-67
2022/12/18 04:31:41;;;;;;;;;42.33;37.33;;;;;-2.13;75.13;102704.56;5052424;28;11598;-66
2022/12/18 04:34:08;;;;;;;;;46.33;32.67;;;;;-2.13;75.47;102705.44;5048968;28;12333;-66
2022/12/18 04:36:40;;;;;;;;;48.33;36.33;;;;;-2.13;74.86;102712.50;5072509;28;11622;-66
2022/12/18 04:39:07;;;;;;;;;52.33;37.33;;;;;-2.15;74.58;102720.44;5064877;28;11621;-67
2022/12/18 04:41:34;;;;;;;;;42.67;37.67;;;;;-2.15;75.10;102728.38;5069214;28;11612;-67
2022/12/18 04:44:02;;;;;;;;;51.00;40.33;;;;;-2.15;75.16;102727.50;5043725;28;11599;-64
2022/12/18 04:46:28;;;;;;;;;39.67;33.67;;;;;-2.14;74.75;102727.47;5069424;28;11726;-66
2022/12/18 04:48:55;;;;;;;;;51.00;39.00;;;;;-2.12;74.43;102735.31;5059427;28;11571;-66
2022/12/18 04:51:21;;;;;;;;;45.33;42.33;;;;;-2.11;74.37;102734.38;5070415;28;11618;-67
2022/12/18 04:53:52;;;;;;;;;45.33;39.33;;;;;-2.11;74.05;102739.66;5070458;28;8832;-67
2022/12/18 04:56:18;;;;;;;;;53.00;46.33;;;;;-2.15;74.50;102738.91;5058359;28;11677;-67
2022/12/18 04:58:45;;;;;;;;;42.33;39.67;;;;;-2.17;73.68;102746.06;5061973;28;8863;-68
2022/12/18 05:01:15;;;;;;;;;48.33;38.33;;;;;-2.19;73.84;102749.69;5063181;28;12058;-66
2022/12/18 05:03:42;;;;;;;;;52.67;44.33;;;;;-2.19;74.38;102752.31;5058688;28;12431;-66
2022/12/18 05:06:10;;;;;;;;;50.67;33.00;;;;;-2.16;74.01;102752.19;5058958;28;9790;-67
2022/12/18 05:08:36;;;;;;;;;42.00;36.67;;;;;-2.17;73.63;102751.34;5071333;28;11575;-67
2022/12/18 05:11:06;;;;;;;;;43.67;38.33;;;;;-2.16;73.75;102752.19;5059518;28;11604;-67
2022/12/18 05:13:33;;;;;;;;;41.00;41.00;;;;;-2.15;73.52;102753.91;5067054;28;12352;-66
2022/12/18 05:15:59;;;;;;;;;46.33;39.00;;;;;-2.13;73.74;102750.28;5051411;28;8854;-67
2022/12/18 05:18:26;;;;;;;;;40.33;35.67;;;;;-2.16;73.37;102755.69;5069096;28;8809;-67
2022/12/18 05:20:53;;;;;;;;;51.67;37.67;;;;;-2.19;73.52;102757.59;5063341;28;11591;-67
2022/12/18 05:23:21;;;;;;;;;38.67;34.00;;;;;-2.22;73.25;102758.59;5064753;28;11600;-69
2022/12/18 05:26:01;;;;;;;;;48.67;39.00;;;;;-2.21;73.79;102764.72;5059019;28;12439;-67
2022/12/18 05:28:29;;;;;;;;;48.00;38.33;;;;;-2.23;73.63;102762.13;5053288;28;9551;-67
2022/12/18 05:30:58;;;;;;;;;45.33;35.00;;;;;-2.21;73.79;102756.81;5066071;28;11556;-68
2022/12/18 05:33:28;;;;;;;;;46.67;39.33;;;;;-2.24;72.89;102753.38;5064846;28;11729;-66
2022/12/18 05:35:57;;;;;;;;;45.00;36.67;;;;;-2.26;72.58;102749.94;5068488;28;9615;-68
2022/12/18 05:38:25;;;;;;;;;44.33;37.67;;;;;-2.28;73.06;102745.66;5061414;28;8848;-68
2022/12/18 05:40:52;;;;;;;;;26.33;24.67;;;;;-2.30;73.20;102743.09;5052457;28;8847;-68
2022/12/18 05:43:21;;;;;;;;;45.00;34.33;;;;;-2.31;72.61;102741.38;5067339;28;8825;-66
2022/12/18 05:45:48;;;;;;;;;37.67;35.33;;;;;-2.37;73.11;102740.75;5065212;28;11621;-67
2022/12/18 05:48:16;;;;;;;;;54.67;43.00;;;;;-2.39;73.05;102734.69;5066790;28;8861;-66
2022/12/18 05:50:47;;;;;;;;;53.67;45.00;;;;;-2.40;72.68;102732.97;5070661;28;8832;-67
2022/12/18 05:53:16;;;;;;;;;36.33;30.00;;;;;-2.47;72.83;102731.50;5065957;28;8825;-66
2022/12/18 05:55:43;;;;;;;;;53.00;42.67;;;;;-2.55;73.15;102727.44;5057492;28;11599;-68
2022/12/18 05:58:11;;;;;;;;;50.33;39.67;;;;;-2.58;72.78;102724.06;5070896;28;8816;-68
2022/12/18 06:00:39;;;;;;;;;47.33;36.67;;;;;-2.60;72.43;102721.47;5056951;28;8819;-67
2022/12/18 06:03:11;;;;;;;;;43.00;37.67;;;;;-2.59;72.73;102724.97;5068078;28;8832;-67
2022/12/18 06:05:40;;;;;;;;;46.67;38.67;;;;;-2.64;72.11;102717.25;5044312;28;8941;-67
2022/12/18 06:08:07;;;;;;;;;39.00;32.33;;;;;-2.74;72.38;102715.91;5061193;28;8859;-67
2022/12/18 06:10:33;;;;;;;;;40.33;34.00;;;;;-2.72;72.97;102721.09;5049827;28;8852;-69
2022/12/18 06:13:00;;;;;;;;;40.00;36.00;;;;;-2.71;72.94;102713.16;5058012;28;9556;-68
2022/12/18 06:15:27;;;;;;;;;39.00;36.67;;;;;-2.69;72.72;102724.47;5061510;28;8836;-68
2022/12/18 06:17:53;;;;;;;;;37.00;31.00;;;;;-2.67;72.57;102722.66;5055534;28;8845;-68
2022/12/18 06:20:20;;;;;;;;;43.00;35.33;;;;;-2.67;72.17;102725.28;5061500;28;11574;-66
2022/12/18 06:22:47;;;;;;;;;42.00;38.33;;;;;-2.71;72.22;102723.69;5071779;28;8867;-68
2022/12/18 06:25:13;;;;;;;;;45.67;34.67;;;;;-2.75;72.00;102725.59;5069708;28;8954;-67
2022/12/18 06:27:40;;;;;;;;;38.33;32.33;;;;;-2.76;71.91;102723.00;5057998;28;8828;-68
2022/12/18 06:30:08;;;;;;;;;43.67;39.33;;;;;-2.80;72.54;102717.00;5063466;28;8987;-69
2022/12/18 06:32:34;;;;;;;;;45.00;39.33;;;;;-2.79;71.88;102713.47;5061150;28;8817;-68
2022/12/18 06:35:01;;;;;;;;;42.67;35.33;;;;;-2.80;72.16;102701.19;5064334;28;8840;-69
2022/12/18 06:37:28;;;;;;;;;46.00;34.67;;;;;-2.80;72.06;102688.00;5066011;28;12361;-70
2022/12/18 06:39:54;;;;;;;;;40.67;35.33;;;;;-2.82;72.03;102674.06;5058284;28;8897;-67
2022/12/18 06:42:22;;;;;;;;;45.00;39.33;;;;;-2.85;72.01;102666.25;5060082;28;8850;-67
2022/12/18 06:44:49;;;;;;;;;41.33;33.67;;;;;-2.93;71.48;102659.59;5065983;28;8943;-67
2022/12/18 06:47:15;;;;;;;;;44.33;35.00;;;;;-2.93;71.88;102659.59;5056007;28;8847;-67
2022/12/18 06:49:42;;;;;;;;;39.00;32.67;;;;;-2.90;71.90;102659.47;5071735;28;8848;-68
2022/12/18 06:52:09;;;;;;;;;38.33;31.33;;;;;-2.91;71.34;102660.41;5069147;28;8824;-69
2022/12/18 06:54:35;;;;;;;;;34.00;27.67;;;;;-2.97;71.63;102655.38;5067631;28;8828;-67
2022/12/18 06:57:02;;;;;;;;;36.67;30.00;;;;;-2.97;71.93;102658.00;5051983;28;8894;-68
2022/12/18 06:59:28;;;;;;;;;37.67;31.67;;;;;-2.98;71.74;102657.16;5067683;28;8828;-68
2022/12/18 07:01:54;;;;;;;;;27.00;26.67;;;;;-2.97;71.54;102655.38;5065334;28;11668;-69
2022/12/18 07:04:21;;;;;;;;;33.00;29.00;;;;;-2.98;71.33;102649.25;5070716;28;11632;-67
2022/12/18 07:06:48;;;;;;;;;37.67;30.33;;;;;-2.94;71.81;102655.25;5061085;28;8857;-68
2022/12/18 07:09:14;;;;;;;;;27.00;22.33;;;;;-2.95;71.57;102654.41;5055361;28;9760;-67
2022/12/18 07:11:41;;;;;;;;;33.33;30.33;;;;;-2.97;71.42;102660.63;5053855;28;11593;-68
2022/12/18 07:14:07;;;;;;;;;38.67;33.33;;;;;-2.97;71.34;102664.13;5054079;28;8827;-68
2022/12/18 07:16:34;;;;;;;;;38.67;32.00;;;;;-2.95;71.31;102661.44;5048966;28;8824;-69
2022/12/18 07:19:00;;;;;;;;;40.67;32.33;;;;;-2.96;71.24;102657.94;5072868;28;8946;-67
2022/12/18 07:21:27;;;;;;;;;31.33;24.33;;;;;-2.94;70.69;102648.22;5076136;28;8849;-68
2022/12/18 07:23:53;;;;;;;;;26.33;25.67;;;;;-2.94;70.89;102653.47;5073090;28;11593;-68
2022/12/18 07:26:21;;;;;;;;;32.33;26.33;;;;;-3.04;71.14;102647.72;5074592;28;11627;-67
2022/12/18 07:28:49;;;;;;;;;27.33;21.33;;;;;-3.04;70.57;102655.63;5058950;28;8827;-68
2022/12/18 07:31:18;;;;;;;;;24.67;24.67;;;;;-3.02;70.54;102642.38;5067863;28;11561;-70
2022/12/18 07:33:45;;;;;;;;;27.33;27.00;;;;;-2.98;70.60;102633.44;5063789;28;8864;-68
2022/12/18 07:36:12;;;;;;;;;28.00;26.33;;;;;-2.98;70.94;102625.53;5054945;28;8904;-68
2022/12/18 07:38:39;;;;;;;;;21.00;20.33;;;;;-3.03;70.63;102616.97;5070126;28;9622;-68
2022/12/18 07:41:11;;;;;;;;;26.67;23.33;;;;;-3.02;71.22;102606.34;5045255;28;12406;-69
2022/12/18 07:43:39;;;;;;;;;24.67;22.33;;;;;-3.06;70.32;102593.38;5061377;28;12489;-68
2022/12/18 07:46:08;;;;;;;;;46.67;30.00;;;;;-3.04;70.64;102600.31;5058339;28;11645;-70
2022/12/18 07:48:35;;;;;;;;;29.00;24.33;;;;;-2.95;70.69;102598.22;5062848;28;8878;-68
2022/12/18 07:51:06;;;;;;;;;27.67;24.00;;;;;-3.04;70.78;102584.50;5069999;28;11699;-67
2022/12/18 07:53:33;;;;;;;;;24.33;22.67;;;;;-3.06;70.55;102578.44;5066162;28;11705;-67
2022/12/18 07:56:02;;;;;;;;;33.00;31.00;;;;;-3.07;70.33;102579.34;5052384;28;11671;-70
2022/12/18 07:58:48;;;;;;;;;19.00;18.33;;;;;-3.01;70.63;102581.72;5064762;28;11575;-72
2022/12/18 08:01:15;;;;;;;;;30.00;23.33;;;;;-2.84;72.32;102581.00;5075266;28;11572;-69
2022/12/18 08:03:42;;;;;;;;;30.00;27.00;;;;;-2.77;72.70;102582.47;5056746;28;12053;-67
2022/12/18 08:06:09;;;;;;;;;28.67;25.67;;;;;-2.70;71.46;102590.13;5066586;28;11618;-65
2022/12/18 08:08:36;;;;;;;;;24.33;22.00;;;;;-2.74;70.46;102592.88;5070099;28;11586;-67
2022/12/18 08:11:03;;;;;;;;;27.33;23.33;;;;;-2.75;70.99;102601.72;5051645;28;11647;-67
2022/12/18 08:13:29;;;;;;;;;27.33;22.00;;;;;-2.72;70.74;102603.34;5052059;28;11679;-67
2022/12/18 08:15:57;;;;;;;;;24.67;22.33;;;;;-2.69;70.78;102615.56;5056987;28;11608;-69
2022/12/18 08:18:25;;;;;;;;;32.50;29.00;;;;;-2.66;70.75;102618.94;5056351;28;11568;-69
2022/12/18 08:20:51;;;;;;;;;30.00;25.00;;;;;-2.67;70.62;102626.88;5057611;28;11584;-68
2022/12/18 08:23:18;;;;;;;;;35.67;30.33;;;;;-2.72;70.59;102629.72;5063745;28;11583;-67
2022/12/18 08:25:44;;;;;;;;;25.50;21.00;;;;;-2.68;70.63;102623.38;5044954;28;11604;-69
2022/12/18 08:28:11;;;;;;;;;34.67;31.67;;;;;-2.65;69.94;102620.63;5057305;28;11607;-67
2022/12/18 08:30:37;;;;;;;;;31.00;29.33;;;;;-2.68;69.72;102633.94;5071988;28;8832;-67
2022/12/18 08:33:04;;;;;;;;;32.33;29.33;;;;;-2.69;70.44;102629.59;5066997;28;11657;-67
2022/12/18 08:35:34;;;;;;;;;27.33;25.67;;;;;-2.71;70.29;102618.28;5059918;28;12078;-68
2022/12/18 08:38:06;;;;;;;;;13.00;9.67;;;;;-2.71;69.69;102610.38;5064105;28;11605;-67
2022/12/18 08:40:33;;;;;;;;;28.33;22.00;;;;;-2.76;69.62;102596.50;5057523;28;11619;-67
2022/12/18 08:45:44;;;;;;;;;24.67;22.33;;;;;-2.81;70.39;102611.66;5058199;28;12650;-67
2022/12/18 08:48:10;;;;;;;;;24.25;22.00;;;;;-2.82;70.22;102605.53;5056066;28;11674;-67
2022/12/18 08:50:37;;;;;;;;;25.00;21.33;;;;;-2.79;70.93;102612.47;5059574;28;11693;-67
2022/12/18 08:53:04;;;;;;;;;24.50;21.50;;;;;-2.72;70.76;102610.41;5061416;28;11570;-67
2022/12/18 08:55:30;;;;;;;;;26.00;24.67;;;;;-2.66;70.54;102611.03;5051800;28;11624;-64
2022/12/18 08:57:56;;;;;;;;;27.25;24.00;;;;;-2.65;70.47;102599.53;5039363;28;11571;-66
2022/12/18 09:00:23;;;;;;;;;27.00;23.50;;;;;-2.69;69.70;102595.31;5052470;28;11602;-66
2022/12/18 09:02:49;;;;;;;;;27.67;27.33;;;;;-2.68;69.98;102593.53;5062476;28;12450;-67
2022/12/18 09:05:16;;;;;;;;;25.25;25.25;;;;;-2.71;70.54;102599.81;5064365;28;11702;-67
2022/12/18 09:07:42;;;;;;;;;28.00;22.67;;;;;-2.68;70.30;102604.94;5068958;28;11725;-64
2022/12/18 09:10:10;;;;;;;;;34.67;26.33;;;;;-2.61;70.23;102603.75;5063786;28;11606;-68
2022/12/18 09:12:36;;;;;;;;;27.00;24.00;;;;;-2.59;70.22;102607.22;5069597;28;11584;-67
2022/12/18 09:15:03;;;;;;;;;25.67;23.67;;;;;-2.51;70.41;102612.16;5069516;28;11605;-66
2022/12/18 09:17:29;;;;;;;;;33.00;30.00;;;;;-2.55;69.84;102603.50;5067059;28;11661;-67
2022/12/18 09:19:56;;;;;;;;;32.67;30.33;;;;;-2.54;70.10;102602.59;5066336;28;11579;-68
2022/12/18 09:22:22;;;;;;;;;33.25;27.50;;;;;-2.53;69.74;102604.28;5070591;28;11618;-67
2022/12/18 09:24:49;;;;;;;;;30.00;22.00;;;;;-2.50;70.46;102603.31;5076215;28;11609;-65
2022/12/18 09:27:15;;;;;;;;;27.25;21.75;;;;;-2.47;70.42;102602.31;5072023;28;11602;-65
2022/12/18 09:29:42;;;;;;;;;36.33;27.00;;;;;-2.46;69.83;102588.22;5091190;28;11564;-66
2022/12/18 09:32:08;;;;;;;;;35.67;30.33;;;;;-2.47;69.99;102587.38;5091085;28;11613;-66
2022/12/18 09:34:35;;;;;;;;;33.33;27.00;;;;;-2.51;69.94;102580.50;5088002;28;11569;-68
2022/12/18 09:37:01;;;;;;;;;23.25;20.00;;;;;-2.50;70.51;102580.44;5063923;28;11597;-66
2022/12/18 09:39:28;;;;;;;;;29.67;24.33;;;;;-2.53;70.45;102577.91;5075664;28;11563;-67
2022/12/18 09:41:57;;;;;;;;;33.67;29.33;;;;;-2.47;69.75;102575.94;5087438;28;11558;-67
2022/12/18 09:44:28;;;;;;;;;27.67;22.67;;;;;-2.46;70.06;102573.25;5072859;28;11604;-67
2022/12/18 09:47:17;;;;;;;;;27.67;24.33;;;;;-2.44;69.85;102563.47;5074383;28;11591;-69
2022/12/18 09:49:52;;;;;;;;;28.50;23.00;;;;;-2.44;70.04;102557.34;5064694;28;11567;-69
2022/12/18 09:52:25;;;;;;;;;30.00;27.00;;;;;-2.46;70.64;102553.94;5070315;28;11696;-70
2022/12/18 09:54:59;;;;;;;;;35.33;29.33;;;;;-2.45;70.38;102547.72;5070425;28;11584;-67
2022/12/18 09:57:26;;;;;;;;;27.00;25.67;;;;;-2.41;70.62;102549.31;5080725;28;11601;-67
2022/12/18 10:00:03;;;;;;;;;27.67;23.33;;;;;-2.45;70.51;102547.72;5079481;28;11574;-67
2022/12/18 10:02:36;;;;;;;;;30.25;26.00;;;;;-2.47;70.22;102541.66;5074725;28;11607;-68
2022/12/18 10:05:11;;;;;;;;;39.00;28.67;;;;;-2.39;70.55;102563.25;5072725;28;11708;-67
2022/12/18 10:07:52;;;;;;;;;33.67;26.67;;;;;-2.33;70.78;102569.13;5073978;28;11600;-69
2022/12/18 10:10:22;;;;;;;;;29.00;23.67;;;;;-2.37;70.21;102574.63;5064249;28;11569;-68
2022/12/18 10:12:55;;;;;;;;;30.33;27.67;;;;;-2.37;70.04;102575.47;5074250;28;11567;-67
2022/12/18 10:15:38;;;;;;;;;24.25;21.75;;;;;-2.30;70.43;102571.66;5070554;28;11551;-66
2022/12/18 10:18:19;;;;;;;;;31.00;26.00;;;;;-2.27;70.10;102562.72;5068717;28;11636;-67
2022/12/18 10:20:59;;;;;;;;;26.75;23.00;;;;;-2.26;70.69;102560.03;5072282;28;11583;-66
2022/12/18 10:23:36;;;;;;;;;27.75;24.75;;;;;-2.29;70.49;102551.41;5068069;28;11669;-66
2022/12/18 10:26:05;;;;;;;;;27.67;24.33;;;;;-2.32;70.24;102543.63;5051670;28;11591;-66
2022/12/18 10:28:35;;;;;;;;;38.33;30.33;;;;;-2.26;70.37;102552.13;5072333;28;11554;-67
2022/12/18 10:31:04;;;;;;;;;22.25;22.25;;;;;-2.18;70.88;102543.84;5074414;28;12297;-65
2022/12/18 10:33:32;;;;;;;;;26.75;23.75;;;;;-2.10;70.62;102549.63;5072208;28;11604;-66
2022/12/18 10:36:00;;;;;;;;;32.50;24.25;;;;;-2.08;70.55;102539.00;5070696;28;12402;-66
2022/12/18 10:38:31;;;;;;;;;32.67;25.67;;;;;-2.13;70.10;102544.50;5073709;28;11658;-66
2022/12/18 10:41:01;;;;;;;;;27.00;25.00;;;;;-2.13;70.48;102541.00;5071330;28;11578;-67
2022/12/18 10:43:30;;;;;;;;;30.75;26.50;;;;;-2.09;70.14;102537.31;5059446;28;11589;-66
2022/12/18 10:46:08;;;;;;;;;36.50;30.50;;;;;-2.07;70.78;102538.06;5077841;28;11591;-66
2022/12/18 10:48:41;;;;;;;;;29.75;26.50;;;;;-2.08;70.72;102531.09;5080814;28;11579;-66
2022/12/18 10:51:09;;;;;;;;;25.75;21.25;;;;;-2.07;69.87;102524.88;5052174;28;11683;-67
2022/12/18 10:53:41;;;;;;;;;27.25;24.25;;;;;-2.07;70.05;102517.81;5063203;28;11584;-65
2022/12/18 10:56:08;;;;;;;;;28.50;24.75;;;;;-2.02;70.51;102507.94;5069749;28;12306;-65
2022/12/18 10:58:37;;;;;;;;;32.00;29.75;;;;;-1.99;70.73;102504.25;5064808;28;11676;-68
2022/12/18 11:01:10;;;;;;;;;27.00;24.25;;;;;-1.97;70.45;102491.03;5068274;28;11620;-65
2022/12/18 11:03:38;;;;;;;;;25.00;20.25;;;;;-1.94;70.31;102485.59;5066695;28;11566;-65
2022/12/18 11:06:13;;;;;;;;;27.50;24.25;;;;;-1.88;70.12;102487.94;5069618;28;11607;-67
2022/12/18 11:08:42;;;;;;;;;24.75;22.25;;;;;-1.32;81.85;102490.44;5069650;28;11550;-61
2022/12/18 11:11:22;;;;;;;;;37.75;29.50;;;;;-0.38;77.36;102494.38;5071075;28;12273;-68
2022/12/18 11:14:06;;;;;;;;;33.50;27.25;;;;;-0.56;72.24;102496.22;5066299;28;11574;-66
2022/12/18 11:16:42;;;;;;;;;25.00;25.00;;;;;-0.89;69.40;102482.09;5051266;28;12261;-66
2022/12/18 11:19:36;;;;;;;;;39.75;23.25;;;;;-1.11;69.24;102475.28;5068999;28;11533;-68
2022/12/18 11:22:23;;;;;;;;;27.25;27.25;;;;;-1.29;69.38;102476.25;5068955;28;11635;-66
2022/12/18 11:25:06;;;;;;;;;34.75;25.75;;;;;-1.38;69.97;102476.69;5067501;28;11567;-65
2022/12/18 11:27:57;;;;;;;;;29.75;25.75;;;;;-1.43;69.86;102483.97;5062436;28;11591;-62
2022/12/18 11:30:24;;;;;;;;;30.25;26.75;;;;;-1.41;69.35;102482.13;5058559;28;11582;-65